Time;durP1;ratioP1;P1;durP2;ratioP2;P2;SDS_P1;SDS_P2;PMS_P1;PMS_P2;Temp;Humidity;BMP_temperature;BMP_pressure;BME280_temperature;BME280_humidity;BME280_pressure;Samples;Min_cycle;Max_cycle;Signal;HPM_P1;HPM_P2
2021/11/28 00:01:15;;;;;;;3.13;2.70;;;18.30;99.90;;;;;;4192871;28;20244;-74
2021/11/28 00:03:20;;;;;;;4.22;3.10;;;18.30;99.90;;;;;;4190788;28;20219;-74
2021/11/28 00:05:25;;;;;;;3.85;3.17;;;18.30;99.90;;;;;;4190465;28;20215;-74
2021/11/28 00:07:31;;;;;;;3.75;3.08;;;18.30;99.90;;;;;;4192891;28;20212;-74
2021/11/28 00:09:43;;;;;;;3.40;3.10;;;18.30;99.90;;;;;;4192118;28;20249;-74
2021/11/28 00:11:57;;;;;;;3.28;2.97;;;18.30;99.90;;;;;;4192064;28;20245;-74
2021/11/28 00:14:08;;;;;;;3.10;2.80;;;18.30;99.90;;;;;;4191337;28;20215;-73
2021/11/28 00:16:11;;;;;;;3.67;3.25;;;18.30;99.90;;;;;;4192636;28;20595;-73
2021/11/28 00:18:13;;;;;;;4.05;3.03;;;18.30;99.90;;;;;;4192669;28;20272;-74
2021/11/28 00:20:17;;;;;;;3.97;3.17;;;18.30;99.90;;;;;;4192514;28;20768;-73
2021/11/28 00:22:19;;;;;;;4.82;2.92;;;18.30;99.90;;;;;;4192406;28;20223;-74
2021/11/28 00:24:22;;;;;;;5.80;3.30;;;18.30;99.90;;;;;;4192683;28;20223;-73
2021/11/28 00:26:24;;;;;;;4.60;3.22;;;18.30;99.90;;;;;;4192927;28;21115;-73
2021/11/28 00:28:28;;;;;;;3.58;2.75;;;18.20;99.90;;;;;;4192717;28;20589;-73
2021/11/28 00:30:32;;;;;;;3.92;3.00;;;18.20;99.90;;;;;;4191998;28;20215;-74
2021/11/28 00:32:34;;;;;;;3.13;2.83;;;18.20;99.90;;;;;;4191160;28;20777;-73
2021/11/28 00:34:37;;;;;;;4.32;3.00;;;18.20;99.90;;;;;;4192663;28;20227;-74
2021/11/28 00:36:39;;;;;;;5.13;3.10;;;18.30;99.90;;;;;;4193371;28;20273;-73
2021/11/28 00:38:42;;;;;;;3.92;2.97;;;18.20;99.90;;;;;;4192487;28;20249;-73
2021/11/28 00:40:44;;;;;;;4.05;3.00;;;18.20;99.90;;;;;;4192543;28;20223;-74
2021/11/28 00:42:46;;;;;;;4.05;3.53;;;18.20;99.90;;;;;;4192327;28;20273;-73
2021/11/28 00:44:50;;;;;;;3.50;3.17;;;18.20;99.90;;;;;;4192606;28;20211;-73
2021/11/28 00:46:52;;;;;;;3.72;3.40;;;18.20;99.90;;;;;;4192433;28;20223;-73
2021/11/28 00:48:56;;;;;;;4.05;3.30;;;18.30;99.90;;;;;;4193498;28;20757;-73
2021/11/28 00:53:19;;;;;;;5.80;3.55;;;18.20;99.90;;;;;;4178698;28;20612;-73
2021/11/28 00:55:22;;;;;;;4.13;3.10;;;18.20;99.90;;;;;;4191309;28;20664;-73
2021/11/28 00:57:25;;;;;;;3.17;2.88;;;18.20;99.90;;;;;;4192520;28;20226;-73
2021/11/28 00:59:28;;;;;;;4.03;2.90;;;18.20;99.90;;;;;;4192590;28;20288;-73
2021/11/28 01:01:33;;;;;;;4.85;3.10;;;18.20;99.90;;;;;;4192048;28;20647;-73
2021/11/28 01:03:36;;;;;;;3.67;3.38;;;18.20;99.90;;;;;;4191916;28;20215;-73
2021/11/28 01:05:38;;;;;;;3.70;3.40;;;18.20;99.90;;;;;;4191845;28;20813;-73
2021/11/28 01:07:40;;;;;;;3.72;3.30;;;18.20;99.90;;;;;;4191205;28;20222;-73
2021/11/28 01:09:43;;;;;;;3.95;3.10;;;18.20;99.90;;;;;;4192321;28;20663;-74
2021/11/28 01:11:45;;;;;;;3.50;3.10;;;18.20;99.90;;;;;;4192198;28;20223;-74
2021/11/28 01:13:48;;;;;;;3.60;3.30;;;18.20;99.90;;;;;;4192282;28;20219;-73
2021/11/28 01:15:50;;;;;;;4.22;3.15;;;18.20;99.90;;;;;;4192226;28;20233;-74
2021/11/28 01:17:54;;;;;;;4.07;3.17;;;18.20;99.90;;;;;;4192327;28;20667;-73
2021/11/28 01:19:56;;;;;;;4.60;3.28;;;18.20;99.90;;;;;;4191734;28;20316;-74
2021/11/28 01:22:02;;;;;;;5.13;3.40;;;18.20;99.90;;;;;;4191530;28;20227;-73
2021/11/28 01:24:04;;;;;;;3.78;3.15;;;18.20;99.90;;;;;;4191574;28;20628;-74
2021/11/28 01:26:07;;;;;;;3.53;2.80;;;18.20;99.90;;;;;;4190778;28;20215;-73
2021/11/28 01:28:09;;;;;;;3.47;3.17;;;18.10;99.90;;;;;;4192438;28;20223;-73
2021/11/28 01:30:12;;;;;;;4.10;3.10;;;18.10;99.90;;;;;;4192345;28;21765;-73
2021/11/28 01:32:14;;;;;;;3.42;3.13;;;18.20;99.90;;;;;;4191419;28;20260;-73
2021/11/28 01:34:18;;;;;;;3.78;3.30;;;18.10;99.90;;;;;;4192609;28;20681;-73
2021/11/28 01:36:21;;;;;;;6.18;3.50;;;18.10;99.90;;;;;;4192218;28;20258;-74
2021/11/28 01:38:23;;;;;;;3.92;3.45;;;18.10;99.90;;;;;;4189826;28;20268;-75
2021/11/28 01:40:25;;;;;;;3.45;2.97;;;18.10;99.90;;;;;;4192360;28;20251;-75
2021/11/28 01:42:35;;;;;;;4.40;3.40;;;18.10;99.90;;;;;;4192433;28;20226;-74
2021/11/28 01:44:37;;;;;;;3.55;3.25;;;18.10;99.90;;;;;;4192205;28;20257;-74
2021/11/28 01:46:40;;;;;;;4.68;3.58;;;18.10;99.90;;;;;;4192627;28;20272;-74
2021/11/28 01:48:42;;;;;;;3.20;2.90;;;18.10;99.90;;;;;;4191813;28;20239;-75
2021/11/28 01:50:48;;;;;;;4.40;3.45;;;18.10;99.90;;;;;;4192418;28;20700;-75
2021/11/28 01:52:51;;;;;;;4.07;2.97;;;18.10;99.90;;;;;;4191450;28;20211;-74
2021/11/28 01:54:53;;;;;;;5.30;3.40;;;18.10;99.90;;;;;;4191011;28;20272;-74
2021/11/28 01:56:56;;;;;;;3.63;3.20;;;18.10;99.90;;;;;;4191868;28;20219;-75
2021/11/28 01:58:59;;;;;;;4.30;3.10;;;18.10;99.90;;;;;;4192140;28;20266;-75
2021/11/28 02:01:06;;;;;;;3.40;2.72;;;18.10;99.90;;;;;;4191447;28;20301;-74
2021/11/28 02:03:11;;;;;;;4.70;3.30;;;18.10;99.90;;;;;;4192400;28;20275;-75
2021/11/28 02:05:15;;;;;;;3.83;3.38;;;18.10;99.90;;;;;;4193695;28;20223;-75
2021/11/28 02:07:18;;;;;;;3.28;2.97;;;18.10;99.90;;;;;;4195104;28;20208;-75
2021/11/28 02:09:21;;;;;;;4.93;3.15;;;18.10;99.90;;;;;;4194590;28;20215;-75
2021/11/28 02:11:23;;;;;;;4.32;3.15;;;18.10;99.90;;;;;;4194123;28;20637;-75
2021/11/28 02:13:26;;;;;;;3.80;3.17;;;18.10;99.90;;;;;;4194573;28;20223;-75
2021/11/28 02:15:28;;;;;;;3.60;3.30;;;18.00;99.90;;;;;;4194549;28;20219;-74
2021/11/28 02:17:31;;;;;;;3.83;3.40;;;18.00;99.90;;;;;;4194904;28;20272;-75
2021/11/28 02:19:33;;;;;;;4.55;3.08;;;18.10;99.90;;;;;;4193829;28;20273;-75
2021/11/28 02:21:37;;;;;;;4.47;3.63;;;18.00;99.90;;;;;;4194523;28;20268;-75
2021/11/28 02:23:40;;;;;;;3.25;2.95;;;18.00;99.90;;;;;;4194387;28;20215;-75
2021/11/28 02:25:43;;;;;;;4.57;3.60;;;18.00;99.90;;;;;;4195065;28;20219;-74
2021/11/28 02:27:46;;;;;;;3.58;3.13;;;18.00;99.90;;;;;;4193974;28;20685;-75
2021/11/28 02:29:48;;;;;;;3.97;3.00;;;18.00;99.90;;;;;;4193541;28;20651;-74
2021/11/28 02:31:50;;;;;;;3.50;3.20;;;18.00;99.90;;;;;;4194564;28;20261;-74
2021/11/28 02:33:53;;;;;;;3.35;3.05;;;18.00;99.90;;;;;;4194609;28;20223;-74
2021/11/28 02:35:55;;;;;;;4.25;3.03;;;18.00;99.90;;;;;;4194427;28;20241;-75
2021/11/28 02:38:01;;;;;;;3.83;3.40;;;18.00;99.90;;;;;;4194106;28;20219;-74
2021/11/28 02:40:04;;;;;;;4.38;3.40;;;18.00;99.90;;;;;;4191751;28;20242;-74
2021/11/28 02:42:06;;;;;;;4.13;3.45;;;18.00;99.90;;;;;;4194561;28;20277;-75
2021/11/28 02:44:09;;;;;;;3.72;3.33;;;18.00;99.90;;;;;;4194430;28;20215;-75
2021/11/28 02:46:12;;;;;;;3.35;3.03;;;18.00;99.90;;;;;;4194698;28;20211;-74
2021/11/28 02:48:17;;;;;;;3.13;2.83;;;18.00;99.90;;;;;;4193363;28;20215;-75
2021/11/28 02:50:21;;;;;;;3.97;3.60;;;18.00;99.90;;;;;;4194242;28;20341;-75
2021/11/28 02:52:23;;;;;;;3.75;3.28;;;18.00;99.90;;;;;;4194186;28;20257;-75
2021/11/28 02:54:27;;;;;;;4.30;3.28;;;18.00;99.90;;;;;;4193592;28;20222;-75
2021/11/28 02:56:29;;;;;;;4.32;3.45;;;18.00;99.90;;;;;;4194179;28;20260;-75
2021/11/28 02:58:34;;;;;;;4.32;3.50;;;18.00;99.90;;;;;;4194096;28;20648;-74
2021/11/28 03:00:39;;;;;;;3.40;3.10;;;18.00;99.90;;;;;;4192724;28;20247;-75
2021/11/28 03:02:41;;;;;;;4.65;3.95;;;18.00;99.90;;;;;;4194101;28;20628;-74
2021/11/28 03:04:44;;;;;;;4.57;3.67;;;17.90;99.90;;;;;;4194377;28;20268;-75
2021/11/28 03:06:46;;;;;;;4.38;3.55;;;17.90;99.90;;;;;;4193424;28;20312;-74
2021/11/28 03:08:48;;;;;;;5.75;3.90;;;17.90;99.90;;;;;;4193856;28;20223;-75
2021/11/28 03:10:54;;;;;;;4.50;4.10;;;18.00;99.90;;;;;;4194454;28;20208;-75
2021/11/28 03:12:56;;;;;;;3.92;3.42;;;18.00;99.90;;;;;;4193319;28;20308;-75
2021/11/28 03:14:59;;;;;;;4.47;4.07;;;18.00;99.90;;;;;;4193727;28;20211;-74
2021/11/28 03:17:01;;;;;;;4.03;3.60;;;17.90;99.90;;;;;;4193194;28;20224;-74
2021/11/28 03:19:04;;;;;;;4.72;3.70;;;17.90;99.90;;;;;;4193739;28;20211;-74
2021/11/28 03:21:08;;;;;;;5.43;4.32;;;17.90;99.90;;;;;;4194220;28;20227;-74
2021/11/28 03:23:12;;;;;;;4.35;3.95;;;17.90;99.90;;;;;;4192343;28;20223;-75
2021/11/28 03:25:16;;;;;;;5.63;4.32;;;17.90;99.90;;;;;;4193641;28;20208;-75
2021/11/28 03:27:19;;;;;;;5.47;4.70;;;17.90;99.90;;;;;;4193473;28;20740;-74
2021/11/28 03:29:24;;;;;;;4.93;3.58;;;17.90;99.90;;;;;;4193433;28;20280;-75
2021/11/28 03:31:30;;;;;;;4.88;4.05;;;17.90;99.90;;;;;;4193817;28;20715;-75
2021/11/28 03:33:33;;;;;;;4.60;4.00;;;17.90;99.90;;;;;;4194242;28;20223;-74
2021/11/28 03:35:35;;;;;;;6.32;4.47;;;17.90;99.90;;;;;;4192935;28;20280;-75
2021/11/28 03:37:38;;;;;;;5.18;4.40;;;17.90;99.90;;;;;;4192175;28;20944;-74
2021/11/28 03:39:40;;;;;;;6.10;4.40;;;17.90;99.90;;;;;;4193368;28;20207;-75
2021/11/28 03:41:44;;;;;;;5.30;4.28;;;17.90;99.90;;;;;;4193140;28;20243;-75
2021/11/28 03:43:50;;;;;;;5.13;4.22;;;17.90;99.90;;;;;;4193540;28;20218;-74
2021/11/28 03:45:52;;;;;;;4.40;4.00;;;17.90;99.90;;;;;;4192121;28;20272;-74
2021/11/28 03:47:55;;;;;;;4.95;4.30;;;17.90;99.90;;;;;;4192466;28;20260;-74
2021/11/28 03:49:57;;;;;;;4.47;3.88;;;17.90;99.90;;;;;;4192742;28;20235;-74
2021/11/28 03:51:59;;;;;;;5.72;4.78;;;17.90;99.90;;;;;;4193581;28;21089;-74
2021/11/28 03:54:02;;;;;;;5.50;4.38;;;17.90;99.90;;;;;;4193284;28;20223;-74
2021/11/28 03:56:06;;;;;;;5.95;4.50;;;17.90;99.90;;;;;;4193109;28;21581;-74
2021/11/28 03:58:09;;;;;;;5.20;4.47;;;17.90;99.90;;;;;;4191430;28;20226;-75
2021/11/28 04:00:14;;;;;;;5.50;4.72;;;17.80;99.90;;;;;;4192344;28;20222;-75
2021/11/28 04:02:18;;;;;;;5.65;4.68;;;17.80;99.90;;;;;;4192629;28;20776;-75
2021/11/28 04:04:20;;;;;;;5.57;4.78;;;17.80;99.90;;;;;;4191047;28;20856;-74
2021/11/28 04:06:23;;;;;;;5.53;4.60;;;17.80;99.90;;;;;;4193000;28;20219;-74
2021/11/28 04:08:26;;;;;;;5.20;4.43;;;17.80;99.90;;;;;;4192879;28;20277;-75
2021/11/28 04:10:28;;;;;;;6.50;5.90;;;17.80;99.90;;;;;;4192891;28;20752;-75
2021/11/28 04:12:31;;;;;;;5.47;4.72;;;17.80;99.90;;;;;;4193129;28;20612;-75
2021/11/28 04:14:33;;;;;;;4.95;4.45;;;17.80;99.90;;;;;;4191898;28;20219;-74
2021/11/28 04:16:37;;;;;;;5.20;4.68;;;17.80;99.90;;;;;;4192290;28;20733;-75
2021/11/28 04:18:40;;;;;;;5.05;4.38;;;17.80;99.90;;;;;;4192625;28;20284;-75
2021/11/28 04:20:43;;;;;;;5.78;4.60;;;17.80;99.90;;;;;;4191742;28;20219;-74
2021/11/28 04:22:45;;;;;;;5.07;4.57;;;17.80;99.90;;;;;;4192971;28;20219;-74
2021/11/28 04:24:48;;;;;;;5.85;4.88;;;17.80;99.90;;;;;;4192655;28;20273;-74
2021/11/28 04:26:50;;;;;;;5.40;4.88;;;17.80;99.90;;;;;;4192632;28;20614;-74
2021/11/28 04:28:52;;;;;;;5.38;4.57;;;17.80;99.90;;;;;;4190282;28;20218;-74
2021/11/28 04:30:55;;;;;;;5.72;5.13;;;17.80;99.90;;;;;;4191294;28;20237;-74
2021/11/28 04:32:58;;;;;;;5.53;4.90;;;17.80;99.90;;;;;;4192601;28;20219;-75
2021/11/28 04:35:01;;;;;;;5.50;4.72;;;17.70;99.90;;;;;;4191798;28;20272;-75
2021/11/28 04:37:04;;;;;;;5.55;5.05;;;17.70;99.90;;;;;;4192214;28;20296;-74
2021/11/28 04:39:07;;;;;;;5.15;4.65;;;17.80;99.90;;;;;;4191929;28;20254;-75
2021/11/28 04:41:09;;;;;;;6.07;5.00;;;17.70;99.90;;;;;;4192276;28;20247;-75
2021/11/28 04:43:11;;;;;;;5.82;5.20;;;17.80;99.90;;;;;;4192590;28;20675;-75
2021/11/28 04:45:14;;;;;;;6.75;5.32;;;17.80;99.90;;;;;;4192290;28;20214;-75
2021/11/28 04:47:18;;;;;;;5.75;5.25;;;17.70;99.90;;;;;;4192577;28;20984;-75
2021/11/28 04:49:23;;;;;;;7.10;5.85;;;17.70;99.90;;;;;;4190831;28;20289;-75
2021/11/28 04:51:26;;;;;;;6.57;5.15;;;17.80;99.90;;;;;;4191613;28;20722;-74
2021/11/28 04:53:28;;;;;;;5.60;5.00;;;17.70;99.90;;;;;;4192088;28;20678;-75
2021/11/28 04:55:31;;;;;;;6.40;5.15;;;17.70;99.90;;;;;;4192223;28;20666;-74
2021/11/28 04:57:33;;;;;;;5.95;5.20;;;17.70;99.90;;;;;;4190957;28;20222;-74
2021/11/28 04:59:35;;;;;;;6.60;5.75;;;17.70;99.90;;;;;;4192277;28;20218;-75
2021/11/28 05:01:38;;;;;;;5.82;5.22;;;17.70;99.90;;;;;;4192556;28;20243;-74
2021/11/28 05:03:40;;;;;;;6.32;5.30;;;17.70;99.90;;;;;;4192615;28;20203;-75
2021/11/28 05:05:44;;;;;;;6.03;5.43;;;17.70;99.90;;;;;;4191425;28;20655;-75
2021/11/28 05:07:46;;;;;;;6.65;5.30;;;17.70;99.90;;;;;;4192249;28;20578;-75
2021/11/28 05:09:49;;;;;;;5.40;4.90;;;17.70;99.90;;;;;;4192383;28;20245;-75
2021/11/28 05:11:51;;;;;;;6.90;5.57;;;17.70;99.90;;;;;;4191999;28;20256;-75
2021/11/28 05:13:53;;;;;;;6.20;5.60;;;17.70;99.90;;;;;;4192537;28;20268;-75
2021/11/28 05:15:56;;;;;;;5.72;5.10;;;17.70;99.90;;;;;;4192417;28;20272;-75
2021/11/28 05:17:58;;;;;;;6.20;5.60;;;17.70;99.90;;;;;;4192162;28;20211;-75
2021/11/28 05:20:01;;;;;;;5.72;5.05;;;17.70;99.90;;;;;;4192400;28;20615;-75
2021/11/28 05:22:05;;;;;;;5.88;5.28;;;17.70;99.90;;;;;;4192101;28;20628;-75
2021/11/28 05:24:08;;;;;;;6.63;5.60;;;17.70;99.90;;;;;;4190981;28;20240;-75
2021/11/28 05:26:10;;;;;;;6.90;5.55;;;17.70;99.90;;;;;;4190842;28;20215;-75
2021/11/28 05:28:13;;;;;;;6.18;5.22;;;17.70;99.90;;;;;;4192234;28;20215;-75
2021/11/28 05:30:16;;;;;;;5.63;4.93;;;17.70;99.90;;;;;;4191564;28;21689;-75
2021/11/28 05:32:18;;;;;;;5.35;4.85;;;17.60;99.90;;;;;;4191740;28;20257;-75
2021/11/28 05:34:20;;;;;;;5.85;4.97;;;17.70;99.90;;;;;;4191272;28;20967;-75
2021/11/28 05:36:23;;;;;;;6.35;5.70;;;17.70;99.90;;;;;;4192017;28;20212;-75
2021/11/28 05:38:26;;;;;;;6.20;5.20;;;17.70;99.90;;;;;;4191411;28;20249;-75
2021/11/28 05:40:29;;;;;;;6.35;5.40;;;17.60;99.90;;;;;;4194076;28;20347;-75
2021/11/28 05:42:31;;;;;;;5.80;5.07;;;17.60;99.90;;;;;;4195129;28;20239;-75
2021/11/28 05:44:34;;;;;;;7.22;5.60;;;17.60;99.90;;;;;;4194716;28;20222;-75
2021/11/28 05:46:36;;;;;;;5.57;4.90;;;17.60;99.90;;;;;;4194659;28;20223;-75
2021/11/28 05:48:38;;;;;;;5.65;5.05;;;17.60;99.90;;;;;;4193457;28;20562;-75
2021/11/28 05:50:41;;;;;;;6.53;5.40;;;17.60;99.90;;;;;;4195089;28;20571;-75
2021/11/28 05:52:43;;;;;;;5.65;4.93;;;17.60;99.90;;;;;;4195167;28;20276;-75
2021/11/28 05:54:48;;;;;;;7.18;5.60;;;17.60;99.90;;;;;;4195116;28;20300;-75
2021/11/28 05:56:51;;;;;;;5.28;4.78;;;17.60;99.90;;;;;;4194842;28;20253;-75
2021/11/28 05:58:54;;;;;;;6.18;5.18;;;17.60;99.90;;;;;;4194885;28;20261;-75
2021/11/28 06:00:56;;;;;;;6.05;5.35;;;17.60;99.90;;;;;;4194360;28;20219;-75
2021/11/28 06:02:59;;;;;;;6.28;5.28;;;17.60;99.90;;;;;;4194616;28;20287;-75
2021/11/28 06:05:01;;;;;;;5.80;5.22;;;17.60;99.90;;;;;;4194907;28;20261;-75
2021/11/28 06:07:04;;;;;;;5.53;5.03;;;17.60;99.90;;;;;;4194688;28;20215;-75
2021/11/28 06:09:06;;;;;;;5.13;4.63;;;17.60;99.90;;;;;;4194608;28;20285;-75
2021/11/28 06:11:10;;;;;;;5.80;5.20;;;17.60;99.90;;;;;;4194474;28;21305;-75
2021/11/28 06:13:12;;;;;;;5.40;4.90;;;17.60;99.90;;;;;;4194786;28;20269;-75
2021/11/28 06:15:15;;;;;;;5.15;4.65;;;17.60;99.90;;;;;;4194931;28;20223;-75
2021/11/28 06:17:17;;;;;;;5.85;5.10;;;17.60;99.90;;;;;;4194529;28;20270;-75
2021/11/28 06:19:20;;;;;;;6.43;4.93;;;17.60;99.90;;;;;;4194467;28;21069;-75
2021/11/28 06:21:23;;;;;;;5.78;4.93;;;17.60;99.90;;;;;;4194963;28;20211;-75
2021/11/28 06:23:25;;;;;;;5.47;4.90;;;17.60;99.90;;;;;;4194443;28;20235;-75
2021/11/28 06:25:28;;;;;;;5.55;5.05;;;17.50;99.90;;;;;;4193620;28;20219;-75
2021/11/28 06:27:31;;;;;;;5.72;5.10;;;17.60;99.90;;;;;;4194959;28;20272;-75
2021/11/28 06:29:34;;;;;;;5.65;5.03;;;17.60;99.90;;;;;;4194481;28;20207;-75
2021/11/28 06:31:36;;;;;;;5.72;5.07;;;17.50;99.90;;;;;;4194207;28;20223;-75
2021/11/28 06:33:39;;;;;;;5.07;4.50;;;17.50;99.90;;;;;;4194999;28;20264;-75
2021/11/28 06:35:42;;;;;;;6.07;5.07;;;17.60;99.90;;;;;;4193730;28;20211;-75
2021/11/28 06:37:46;;;;;;;5.60;4.60;;;17.60;99.90;;;;;;4194728;28;20219;-75
2021/11/28 06:39:48;;;;;;;5.25;4.57;;;17.50;99.90;;;;;;4193990;28;20219;-75
2021/11/28 06:41:50;;;;;;;5.85;5.25;;;17.60;99.90;;;;;;4194723;28;20261;-75
2021/11/28 06:43:54;;;;;;;6.30;5.03;;;17.50;99.90;;;;;;4194434;28;20625;-75
2021/11/28 06:45:57;;;;;;;5.13;4.63;;;17.50;99.90;;;;;;4194442;28;20968;-75
2021/11/28 06:47:59;;;;;;;5.43;4.60;;;17.50;99.90;;;;;;4194120;28;20227;-75
2021/11/28 06:50:02;;;;;;;5.40;4.63;;;17.50;99.90;;;;;;4194007;28;20231;-75
2021/11/28 06:52:05;;;;;;;5.07;4.38;;;17.50;99.90;;;;;;4192810;28;20292;-75
2021/11/28 06:54:07;;;;;;;5.57;4.63;;;17.50;99.90;;;;;;4193533;28;20272;-75
2021/11/28 06:56:10;;;;;;;4.90;4.38;;;17.50;99.90;;;;;;4193276;28;20222;-76
2021/11/28 06:58:12;;;;;;;4.95;4.45;;;17.50;99.90;;;;;;4194764;28;20655;-75
2021/11/28 07:00:18;;;;;;;5.80;4.95;;;17.50;99.90;;;;;;4194357;28;20337;-75
2021/11/28 07:02:21;;;;;;;5.25;4.75;;;17.50;99.90;;;;;;4193640;28;20288;-75
2021/11/28 07:04:24;;;;;;;4.97;4.32;;;17.50;99.90;;;;;;4193620;28;20219;-75
2021/11/28 07:06:26;;;;;;;4.70;4.18;;;17.50;99.90;;;;;;4193691;28;20276;-75
2021/11/28 07:08:28;;;;;;;5.18;4.43;;;17.50;99.90;;;;;;4193999;28;20279;-75
2021/11/28 07:10:31;;;;;;;4.72;4.32;;;17.50;99.90;;;;;;4192781;28;20276;-76
2021/11/28 07:12:33;;;;;;;5.00;4.50;;;17.50;99.90;;;;;;4193740;28;20268;-75
2021/11/28 07:14:36;;;;;;;5.00;4.50;;;17.50;99.90;;;;;;4192809;28;20280;-75
2021/11/28 07:16:39;;;;;;;5.00;4.50;;;17.50;99.90;;;;;;4193229;28;20268;-76
2021/11/28 07:18:43;;;;;;;5.35;4.57;;;17.50;99.90;;;;;;4193517;28;20215;-75
2021/11/28 07:20:46;;;;;;;5.53;4.45;;;17.50;99.90;;;;;;4193523;28;20713;-75
2021/11/28 07:22:48;;;;;;;5.55;4.53;;;17.50;99.90;;;;;;4193251;28;20273;-75
2021/11/28 07:24:50;;;;;;;5.65;4.68;;;17.50;99.90;;;;;;4192916;28;20255;-75
2021/11/28 07:26:53;;;;;;;4.40;4.00;;;17.50;99.90;;;;;;4192001;28;20219;-75
2021/11/28 07:28:55;;;;;;;4.78;4.00;;;17.50;99.90;;;;;;4193040;28;20214;-75
2021/11/28 07:30:57;;;;;;;4.68;4.25;;;17.50;99.90;;;;;;4193255;28;20219;-75
2021/11/28 07:33:01;;;;;;;4.72;4.22;;;17.50;99.90;;;;;;4193210;28;20249;-75
2021/11/28 07:35:04;;;;;;;4.72;4.22;;;17.50;99.90;;;;;;4193346;28;20211;-75
2021/11/28 07:37:06;;;;;;;4.95;4.43;;;17.40;99.90;;;;;;4193406;28;20257;-75
2021/11/28 07:39:09;;;;;;;4.80;4.30;;;17.40;99.90;;;;;;4192897;28;20223;-75
2021/11/28 07:41:12;;;;;;;4.43;4.03;;;17.40;99.90;;;;;;4193184;28;20280;-75
2021/11/28 07:43:16;;;;;;;4.47;4.07;;;17.40;99.90;;;;;;4192070;28;20226;-75
2021/11/28 07:45:18;;;;;;;4.53;4.07;;;17.50;99.90;;;;;;4192810;28;20278;-75
2021/11/28 07:47:20;;;;;;;5.13;4.45;;;17.40;99.90;;;;;;4192851;28;20249;-75
2021/11/28 07:49:24;;;;;;;4.68;4.28;;;17.50;99.90;;;;;;4192966;28;20276;-75
2021/11/28 07:51:26;;;;;;;5.28;4.35;;;17.40;99.90;;;;;;4193154;28;20215;-75
2021/11/28 07:53:30;;;;;;;4.35;3.95;;;17.40;99.90;;;;;;4193591;28;20963;-75
2021/11/28 07:55:32;;;;;;;4.55;4.13;;;17.40;99.90;;;;;;4193193;28;20594;-75
2021/11/28 07:57:35;;;;;;;4.53;3.85;;;17.40;99.90;;;;;;4193541;28;20215;-75
2021/11/28 07:59:37;;;;;;;6.88;4.50;;;17.40;99.90;;;;;;4193302;28;20215;-75
2021/11/28 08:01:40;;;;;;;4.40;4.00;;;17.40;99.90;;;;;;4191908;28;20227;-75
2021/11/28 08:03:42;;;;;;;4.43;4.03;;;17.40;99.90;;;;;;4191448;28;21647;-75
2021/11/28 08:05:46;;;;;;;4.45;4.05;;;17.40;99.90;;;;;;4191852;28;20214;-75
2021/11/28 08:07:48;;;;;;;4.57;4.05;;;17.40;99.90;;;;;;4193271;28;20265;-75
2021/11/28 08:09:50;;;;;;;6.13;3.65;;;17.40;99.90;;;;;;4193324;28;20265;-75
2021/11/28 08:11:53;;;;;;;4.70;4.03;;;17.40;99.90;;;;;;4193131;28;20671;-75
2021/11/28 08:13:55;;;;;;;4.30;3.90;;;17.40;99.90;;;;;;4193420;28;20253;-75
2021/11/28 08:15:57;;;;;;;5.18;4.03;;;17.40;99.90;;;;;;4193143;28;20261;-75
2021/11/28 08:18:00;;;;;;;5.20;3.97;;;17.40;99.90;;;;;;4192430;28;20222;-75
2021/11/28 08:20:02;;;;;;;4.65;3.97;;;17.40;99.90;;;;;;4192857;28;20219;-75
2021/11/28 08:22:06;;;;;;;5.13;4.00;;;17.40;99.90;;;;;;4192504;28;20718;-75
2021/11/28 08:24:08;;;;;;;4.10;3.70;;;17.40;99.90;;;;;;4192102;28;20285;-75
2021/11/28 08:26:11;;;;;;;4.75;4.25;;;17.40;99.90;;;;;;4192556;28;20276;-75
2021/11/28 08:28:13;;;;;;;4.28;3.80;;;17.40;99.90;;;;;;4192423;28;20249;-75
2021/11/28 08:30:17;;;;;;;3.85;3.45;;;17.40;99.90;;;;;;4192601;28;20284;-75
2021/11/28 08:32:19;;;;;;;4.38;3.90;;;17.40;99.90;;;;;;4192615;28;20277;-75
2021/11/28 08:34:22;;;;;;;4.30;3.88;;;17.40;99.90;;;;;;4191715;28;20211;-75
2021/11/28 08:36:25;;;;;;;4.68;4.18;;;17.40;99.90;;;;;;4191833;28;20256;-75
2021/11/28 08:38:29;;;;;;;4.45;4.00;;;17.40;99.90;;;;;;4192179;28;20660;-75
2021/11/28 08:40:34;;;;;;;4.88;4.35;;;17.30;99.90;;;;;;4191956;28;20231;-75
2021/11/28 08:42:36;;;;;;;4.10;3.70;;;17.40;99.90;;;;;;4191710;28;20223;-75
2021/11/28 08:44:39;;;;;;;5.30;4.25;;;17.40;99.90;;;;;;4192352;28;20239;-75
2021/11/28 08:46:41;;;;;;;4.82;3.85;;;17.40;99.90;;;;;;4192241;28;20223;-75
2021/11/28 08:48:44;;;;;;;4.50;3.78;;;17.40;99.90;;;;;;4192093;28;20246;-75
2021/11/28 08:50:46;;;;;;;5.35;4.50;;;17.40;99.90;;;;;;4192018;28;20272;-75
2021/11/28 08:52:48;;;;;;;4.07;3.67;;;17.40;99.90;;;;;;4191023;28;20214;-75
2021/11/28 08:54:52;;;;;;;4.50;4.03;;;17.40;99.90;;;;;;4192357;28;20732;-75
2021/11/28 08:56:54;;;;;;;5.05;4.10;;;17.40;99.90;;;;;;4191857;28;20604;-75
2021/11/28 08:58:57;;;;;;;4.47;3.90;;;17.40;99.90;;;;;;4191035;28;20215;-75
2021/11/28 09:00:59;;;;;;;5.10;3.90;;;17.40;99.90;;;;;;4191891;28;20655;-75
2021/11/28 09:03:02;;;;;;;5.10;4.22;;;17.40;99.90;;;;;;4191465;28;20219;-75
2021/11/28 09:05:06;;;;;;;4.75;3.70;;;17.40;99.90;;;;;;4192507;28;20702;-75
2021/11/28 09:07:08;;;;;;;4.45;4.05;;;17.40;99.90;;;;;;4192202;28;20223;-75
2021/11/28 09:09:10;;;;;;;4.45;4.05;;;17.40;99.90;;;;;;4192054;28;20591;-75
2021/11/28 09:11:15;;;;;;;4.82;4.28;;;17.40;99.90;;;;;;4192479;28;20270;-75
2021/11/28 09:13:18;;;;;;;4.13;3.72;;;17.40;99.90;;;;;;4192702;28;20215;-75
2021/11/28 09:15:22;;;;;;;4.57;4.10;;;17.40;99.90;;;;;;4191018;28;20268;-75
2021/11/28 09:17:24;;;;;;;4.68;4.03;;;17.40;99.90;;;;;;4192582;28;20211;-75
2021/11/28 09:19:32;;;;;;;4.93;4.30;;;17.40;99.90;;;;;;4191746;28;20215;-75
2021/11/28 09:21:34;;;;;;;4.22;3.83;;;17.40;99.90;;;;;;4191697;28;20218;-75
2021/11/28 09:25:56;;;;;;;4.53;4.13;;;17.40;99.90;;;;;;4192502;28;20693;-75
2021/11/28 09:28:01;;;;;;;3.97;3.60;;;17.40;99.90;;;;;;4190071;28;20215;-75
2021/11/28 09:30:03;;;;;;;4.82;4.32;;;17.40;99.90;;;;;;4192420;28;20605;-75
2021/11/28 09:32:06;;;;;;;4.00;3.60;;;17.40;99.90;;;;;;4192173;28;20264;-75
2021/11/28 09:34:09;;;;;;;5.13;4.22;;;17.40;99.90;;;;;;4191996;28;20257;-75
2021/11/28 09:36:11;;;;;;;5.35;4.43;;;17.40;99.90;;;;;;4191676;28;20277;-75
2021/11/28 09:38:13;;;;;;;4.93;4.28;;;17.50;99.90;;;;;;4191423;28;20345;-76
2021/11/28 09:40:16;;;;;;;4.38;3.97;;;17.40;99.90;;;;;;4191951;28;20285;-75
2021/11/28 09:42:22;;;;;;;4.45;3.88;;;17.40;99.90;;;;;;4192342;28;20223;-75
2021/11/28 09:44:28;;;;;;;5.10;4.22;;;17.40;99.90;;;;;;4190912;28;20352;-75
2021/11/28 09:46:31;;;;;;;4.88;4.35;;;17.40;99.90;;;;;;4190803;28;20211;-75
2021/11/28 09:48:35;;;;;;;4.82;4.32;;;17.50;99.90;;;;;;4191815;28;20240;-75
2021/11/28 09:50:37;;;;;;;5.28;4.03;;;17.40;99.90;;;;;;4191836;28;20265;-75
2021/11/28 09:52:41;;;;;;;5.10;4.13;;;17.40;99.90;;;;;;4190416;28;20281;-75
2021/11/28 09:54:45;;;;;;;4.82;4.03;;;17.40;99.90;;;;;;4191486;28;20560;-75
2021/11/28 09:56:47;;;;;;;4.80;4.22;;;17.40;99.90;;;;;;4192044;28;20289;-75
2021/11/28 09:58:50;;;;;;;3.72;3.42;;;17.40;99.90;;;;;;4191523;28;20265;-75
2021/11/28 10:00:54;;;;;;;4.65;4.18;;;17.50;99.90;;;;;;4191863;28;20223;-75
2021/11/28 10:02:56;;;;;;;4.38;3.85;;;17.40;99.90;;;;;;4190839;28;20207;-75
2021/11/28 10:05:02;;;;;;;4.40;4.00;;;17.40;99.90;;;;;;4191326;28;20298;-75
2021/11/28 10:07:06;;;;;;;4.18;3.63;;;17.40;99.90;;;;;;4191842;28;20215;-75
2021/11/28 10:09:08;;;;;;;4.68;4.25;;;17.50;99.90;;;;;;4191455;28;20219;-75
2021/11/28 10:11:48;;;;;;;5.07;3.97;;;17.50;99.90;;;;;;4191253;28;20567;-75
2021/11/28 10:13:54;;;;;;;3.80;3.50;;;17.40;99.90;;;;;;4191620;28;20222;-75
2021/11/28 10:15:57;;;;;;;4.05;3.50;;;17.50;99.90;;;;;;4192099;28;20257;-75
2021/11/28 10:18:01;;;;;;;4.65;4.18;;;17.50;99.90;;;;;;4191977;28;20219;-75
2021/11/28 10:20:06;;;;;;;4.75;3.92;;;17.40;99.90;;;;;;4191180;28;20268;-75
2021/11/28 10:22:09;;;;;;;5.30;4.10;;;17.40;99.90;;;;;;4191244;28;21260;-75
2021/11/28 10:24:13;;;;;;;3.75;3.40;;;17.50;99.90;;;;;;4191678;28;20307;-75
2021/11/28 10:26:16;;;;;;;4.60;3.72;;;17.50;99.90;;;;;;4191873;28;20253;-75
2021/11/28 10:28:19;;;;;;;4.25;3.85;;;17.40;99.90;;;;;;4194173;28;20223;-75
2021/11/28 10:30:34;;;;;;;5.03;3.50;;;17.40;99.90;;;;;;4194809;28;20233;-75
2021/11/28 10:32:42;;;;;;;4.53;3.78;;;17.40;99.90;;;;;;4193355;28;20271;-75
2021/11/28 10:34:49;;;;;;;3.70;3.33;;;17.40;99.90;;;;;;4193872;28;20223;-75
2021/11/28 10:37:01;;;;;;;3.65;3.35;;;17.40;99.90;;;;;;4193254;28;20728;-75
2021/11/28 10:39:13;;;;;;;4.72;4.20;;;17.40;99.90;;;;;;4192364;28;20219;-75
2021/11/28 10:41:23;;;;;;;4.20;3.80;;;17.40;99.90;;;;;;4193763;28;20309;-75
2021/11/28 10:43:26;;;;;;;4.80;3.72;;;17.40;99.90;;;;;;4193508;28;20720;-75
2021/11/28 10:45:28;;;;;;;3.90;3.50;;;17.40;99.90;;;;;;4194204;28;20239;-75
2021/11/28 10:47:39;;;;;;;4.82;3.80;;;17.30;99.90;;;;;;4194453;28;20245;-75